METAR Data
IDs: Format: Raw Decoded Include TAF

Data at: 2210 UTC 24 Mar 2019

KERV 242155Z AUTO 17004KT 10SM BKN029 25/18 A3004 RMK AO2 T02470176
KERV 242135Z AUTO 17008KT 10SM BKN029 24/18 A3004 RMK AO2 T02370175
KERV 242115Z AUTO 18005KT 10SM BKN025 23/18 A3005 RMK AO2 T02330175
KERV 242055Z AUTO 18007KT 10SM OVC025 24/18 A3005 RMK AO2 T02410177
KERV 242035Z AUTO 20006KT 10SM OVC025 24/18 A3006 RMK AO2 T02380178
KERV 242015Z AUTO 19006KT 10SM OVC023 23/17 A3007 RMK AO2 T02260173
KERV 241955Z AUTO 14007KT 10SM OVC021 22/18 A3007 RMK AO2 T02200176
KERV 241935Z AUTO 17006KT 10SM OVC021 22/18 A3008 RMK AO2 T02200177
KERV 241915Z AUTO 17005KT 10SM OVC017 22/18 A3009 RMK AO2 T02200180
KERV 241855Z AUTO 19004KT 10SM OVC015 21/17 A3010 RMK AO2 T02050171
KERV 241835Z AUTO 17006KT 10SM OVC013 21/17 A3011 RMK AO2 T02050174
KERV 241815Z AUTO 19008KT 10SM OVC011 19/17 A3011 RMK AO2 T01930165
KERV 241755Z AUTO 17006KT 10SM OVC011 19/17 A3012 RMK AO2 T01900165 10190 20166
KERV 241735Z AUTO 16006KT 10SM OVC011 19/17 A3012 RMK AO2 T01900165
KERV 241715Z AUTO 17005KT 10SM OVC011 19/17 A3012 RMK AO2 T01900165
KERV 241655Z AUTO 17008KT 10SM OVC011 18/16 A3012 RMK AO2 T01830159
KERV 241635Z AUTO 17007KT 10SM BKN009 OVC013 18/16 A3013 RMK AO2 T01810159
KERV 241615Z AUTO 18007KT 10SM OVC007 18/16 A3013 RMK AO2 T01760156
KERV 241555Z AUTO 18007KT 10SM OVC009 18/16 A3013 RMK AO2 T01760156
KERV 241535Z AUTO 20008KT 10SM OVC009 18/16 A3013 RMK AO2 T01760155
KERV 241515Z AUTO 18008KT 10SM OVC007 17/15 A3012 RMK AO2 T01700151
KERV 241455Z AUTO 17007KT 7SM BKN007 OVC011 17/15 A3011 RMK AO2 T01700153
KERV 241435Z AUTO 16007KT 10SM OVC009 17/16 A3011 RMK AO2 T01700155
KERV 241415Z AUTO 17007KT 7SM OVC007 17/16 A3010 RMK AO2 T01700155
KERV 241355Z AUTO 17007KT 7SM OVC005 17/15 A3010 RMK AO2 T01680153
KERV 241335Z AUTO 18006KT 4SM BR OVC005 17/15 A3010 RMK AO2 T01660151
KERV 241315Z AUTO 17007KT 5SM BR OVC005 17/15 A3009 RMK AO2 T01660151
KERV 241255Z AUTO 17007KT 7SM OVC005 17/15 A3008 RMK AO2 T01660151
KERV 241235Z AUTO 17009KT 5SM BR OVC005 17/15 A3008 RMK AO2 T01660151
KERV 241215Z AUTO 18007KT 5SM BR OVC005 17/15 A3008 RMK AO2 T01660150
KERV 241155Z AUTO 18009KT 7SM OVC007 17/15 A3007 RMK AO2 T01690152 10173 20166
KERV 241135Z AUTO 19011G15KT 10SM OVC005 17/15 A3007 RMK AO2 T01680152
KERV 241115Z AUTO 17008KT 10SM OVC005 17/15 A3006 RMK AO2 T01670152
KERV 241055Z AUTO 17007KT 5SM BR OVC005 17/16 A3006 RMK AO2 T01700155
KERV 241035Z AUTO 18007KT 5SM BR OVC005 17/15 A3006 RMK AO2 T01700154
KERV 241015Z AUTO 17006KT 7SM OVC005 17/15 A3005 RMK AO2 T01700153
KERV 240955Z AUTO 17008KT 7SM OVC007 17/15 A3006 RMK AO2 T01700152
KERV 240935Z AUTO 17006KT 10SM OVC007 17/15 A3006 RMK AO2 T01700151
KERV 240915Z AUTO 17010KT 10SM OVC007 17/15 A3006 RMK AO2 T01700152
KERV 240855Z AUTO 17005KT 10SM OVC009 17/15 A3006 RMK AO2 T01700152
KERV 240835Z AUTO 17007KT 10SM OVC009 17/15 A3006 RMK AO2 T01720152
KERV 240815Z AUTO 16008KT 10SM OVC009 17/15 A3006 RMK AO2 T01730153
KERV 240755Z AUTO 16009KT 10SM OVC009 17/15 A3007 RMK AO2 T01730153
KERV 240735Z AUTO 17008KT 10SM OVC009 17/16 A3007 RMK AO2 T01730155
KERV 240715Z AUTO 17010KT 10SM OVC009 17/16 A3007 RMK AO2 T01730155
KERV 240655Z AUTO 17008G15KT 10SM OVC009 17/15 A3007 RMK AO2 T01720153
KERV 240635Z AUTO 17010G16KT 10SM OVC009 17/15 A3007 RMK AO2 T01710153
KERV 240615Z AUTO 16012G16KT 10SM OVC009 17/15 A3007 RMK AO2 T01700152
KERV 240555Z AUTO 16011G17KT 10SM OVC009 17/15 A3008 RMK AO2 T01730153 10205 20173 402200148
KERV 240535Z AUTO 17009KT 10SM OVC011 18/16 A3008 RMK AO2 T01760155
KERV 240515Z AUTO 17008KT 10SM OVC011 18/16 A3008 RMK AO2 T01760155
KERV 240455Z AUTO 16008KT 10SM OVC013 18/15 A3008 RMK AO2 T01760153
KERV 240435Z AUTO 16011KT 10SM OVC013 18/15 A3008 RMK AO2 T01760152
KERV 240415Z AUTO 15009KT 10SM OVC013 18/15 A3008 RMK AO2 T01760152
KERV 240355Z AUTO 16011KT 10SM OVC013 18/15 A3008 RMK AO2 T01760152
KERV 240335Z AUTO 15012G17KT 10SM OVC013 18/15 A3008 RMK AO2 T01760153
KERV 240315Z AUTO 15012KT 10SM OVC013 18/16 A3007 RMK AO2 T01780155
KERV 240255Z AUTO 15010KT 10SM BKN015 OVC021 18/16 A3007 RMK AO2 T01800156
KERV 240235Z AUTO 15010KT 10SM OVC015 18/16 A3006 RMK AO2 T01800157
KERV 240215Z AUTO 14008KT 10SM OVC015 18/16 A3005 RMK AO2 T01760156
KERV 240155Z AUTO 14008KT 10SM BKN015 BKN022 BKN027 18/16 A3006 RMK AO2 T01780156
KERV 240135Z AUTO 14008KT 10SM SCT019 SCT024 BKN046 18/16 A3006 RMK AO2 T01810156
KERV 240115Z AUTO 15006KT 10SM SCT022 SCT031 BKN041 18/16 A3006 RMK AO2 T01820156
KERV 240055Z AUTO 17004KT 10SM SCT024 BKN032 OVC041 19/16 A3005 RMK AO2 T01900160
KERV 240035Z AUTO 18004KT 10SM SCT024 BKN031 OVC041 20/16 A3005 RMK AO2 T01970164
KERV 240015Z AUTO 17006KT 10SM SCT022 BKN029 OVC036 20/16 A3004 RMK AO2 T01970163
KERV 232355Z AUTO 18008KT 10SM BKN027 BKN040 21/17 A3003 RMK AO2 T02050168 10220 20163
KERV 232335Z AUTO 18008KT 10SM SCT023 SCT029 SCT040 21/17 A3003 RMK AO2 T02050166
KERV 232315Z AUTO 16012KT 10SM BKN021 BKN040 22/18 A3002 RMK AO2 T02200176
KERV 232255Z AUTO 15008KT 10SM SCT019 SCT027 BKN042 21/17 A3002 RMK AO2 T02050173
KERV 232235Z AUTO 15009KT 10SM SCT019 BKN033 OVC041 21/18 A3002 RMK AO2 T02050175
KERV 232215Z AUTO 16008KT 10SM BKN015 BKN025 OVC037 20/18 A3002 RMK AO2 T02030175
KERV 232155Z AUTO 16007KT 10SM OVC013 20/17 A3002 RMK AO2 T01960171
KERV 232135Z AUTO 17008KT 10SM BKN013 OVC018 19/17 A3003 RMK AO2 T01870166
KERV 232115Z AUTO 20005KT 10SM BKN011 BKN019 OVC025 18/17 A3005 RMK AO2 T01820165
KERV 232055Z AUTO 21003KT 10SM SCT006 BKN013 OVC017 18/16 A3005 RMK AO2 T01770162
KERV 232035Z AUTO 21004KT 4SM BR BKN006 OVC015 18/16 A3006 RMK AO2 T01760161
KERV 232015Z AUTO 19005KT 4SM BR OVC004 18/16 A3007 RMK AO2 T01760162
KERV 231955Z AUTO 17005KT 3SM BR OVC004 17/16 A3007 RMK AO2 T01720158
KERV 231935Z AUTO 20005KT 2 1/2SM BR BKN007 OVC012 17/16 A3008 RMK AO2 T01700155
KERV 231915Z AUTO 19006KT 2 1/2SM DZ BKN005 OVC012 17/16 A3008 RMK AO2 T01700155
KERV 231855Z AUTO 19006KT 2 1/2SM -DZ BKN007 OVC010 17/16 A3009 RMK AO2 T01690155
KERV 231835Z AUTO 17005KT 3SM DZ OVC007 17/15 A3010 RMK AO2 T01670154
KERV 231815Z AUTO 18005KT 2 1/2SM DZ OVC008 17/15 A3010 RMK AO2 T01680154
KERV 231755Z AUTO 19006KT 2 1/2SM DZ OVC008 16/15 A3010 RMK AO2 T01630150 10163 20148
KERV 231735Z AUTO 19007KT 3SM BR OVC006 16/15 A3010 RMK AO2 T01620148
KERV 231715Z AUTO 18006KT 2 1/2SM RA OVC006 16/15 A3011 RMK AO2 LTG DSNT NE T01620148
KERV 231655Z AUTO 19007G15KT 4SM BR OVC004 16/15 A3010 RMK AO2 T01620148
KERV 231635Z AUTO 18007KT 4SM BR OVC004 16/15 A3010 RMK AO2 LTG DSNT NE T01620148
KERV 231615Z AUTO 17007KT 2SM -RA OVC004 16/15 A3010 RMK AO2 T01620148
KERV 231555Z AUTO 16008KT 1 3/4SM BR OVC004 16/15 A3009 RMK AO2 T01620148
KERV 231535Z AUTO 17008KT 2SM BR OVC006 16/15 A3009 RMK AO2 T01620148
KERV 231515Z AUTO 18007KT 7SM OVC006 16/15 A3008 RMK AO2 T01620148
KERV 231455Z AUTO 15007KT 4SM BR OVC006 15/14 A3008 RMK AO2 LTG DSNT NE T01520140
KERV 231435Z AUTO 14008KT 1 3/4SM -DZ OVC004 15/14 A3008 RMK AO2 T01480135
KERV 231415Z AUTO 15007KT 1 3/4SM -DZ OVC004 15/14 A3008 RMK AO2 T01480135
KERV 231355Z AUTO 15006KT 1 3/4SM -DZ OVC004 15/14 A3008 RMK AO2 T01480135
KERV 231335Z AUTO 13006KT 1 1/2SM DZ OVC006 15/14 A3007 RMK AO2 T01480135
KERV 231315Z AUTO 15004KT 3SM DZ OVC008 15/14 A3008 RMK AO2 T01480135
KERV 231255Z AUTO 16004KT 4SM -DZ OVC008 15/14 A3007 RMK AO2 T01480135
KERV 231235Z AUTO 17005KT 4SM RA OVC010 15/13 A3006 RMK AO2 T01480132
KERV 231215Z AUTO 18006KT 5SM RA OVC012 15/13 A3006 RMK AO2 T01480129
KERV 231155Z AUTO 18007KT 10SM OVC012 16/13 A3005 RMK AO2 T01550130 10170 20148
KERV 231135Z AUTO 18008KT 10SM OVC014 16/13 A3005 RMK AO2 T01550127
KERV 231115Z AUTO 17006KT 10SM OVC014 16/13 A3005 RMK AO2 T01550126
KERV 231055Z AUTO 18008KT 10SM OVC014 16/13 A3004 RMK AO2 T01550126
KERV 231035Z AUTO 17009KT 10SM OVC014 16/13 A3003 RMK AO2 T01550125
KERV 231015Z AUTO 17007KT 10SM OVC016 16/12 A3003 RMK AO2 T01550122